Time;durP1;ratioP1;P1;durP2;ratioP2;P2;SDS_P1;SDS_P2;PMS_P1;PMS_P2;Temp;Humidity;BMP_temperature;BMP_pressure;BME280_temperature;BME280_humidity;BME280_pressure;Samples;Min_cycle;Max_cycle;Signal;HPM_P1;HPM_P2
2023/06/07 00:01:46;;;;;;;5.47;4.43;;;;;;;;;;5056823;28;20452;-29
2023/06/07 00:04:12;;;;;;;11.18;5.05;;;;;;;;;;5056664;28;20051;-33
2023/06/07 00:06:39;;;;;;;9.95;4.45;;;;;;;;;;5055844;28;20537;-29
2023/06/07 00:09:09;;;;;;;8.13;4.15;;;;;;;;;;5056704;28;20100;-29
2023/06/07 00:11:36;;;;;;;8.18;5.53;;;;;;;;;;5055619;28;20044;-29
2023/06/07 00:14:02;;;;;;;8.15;4.50;;;;;;;;;;5056521;28;20091;-27
2023/06/07 00:16:29;;;;;;;5.85;4.20;;;;;;;;;;5056628;28;20047;-28
2023/06/07 00:18:57;;;;;;;5.10;4.38;;;;;;;;;;5056573;28;20079;-31
2023/06/07 00:21:24;;;;;;;8.70;4.95;;;;;;;;;;5057338;28;20211;-28
2023/06/07 00:23:50;;;;;;;5.68;4.03;;;;;;;;;;5056444;28;20017;-28
2023/06/07 00:26:16;;;;;;;4.68;3.80;;;;;;;;;;5056344;28;20036;-29
2023/06/07 00:28:42;;;;;;;5.60;5.13;;;;;;;;;;5056936;28;20028;-29
2023/06/07 00:31:08;;;;;;;4.57;4.07;;;;;;;;;;5056312;28;20078;-31
2023/06/07 00:33:34;;;;;;;5.22;4.25;;;;;;;;;;5056233;28;20032;-29
2023/06/07 00:36:00;;;;;;;5.40;4.88;;;;;;;;;;5056425;28;20092;-29
2023/06/07 00:38:27;;;;;;;6.50;4.57;;;;;;;;;;5056222;28;20364;-28
2023/06/07 00:40:53;;;;;;;5.22;4.18;;;;;;;;;;5055240;28;20024;-27
2023/06/07 00:43:19;;;;;;;6.65;4.28;;;;;;;;;;5056316;28;20032;-28
2023/06/07 00:45:45;;;;;;;7.78;6.20;;;;;;;;;;5056049;28;20025;-27
2023/06/07 00:48:11;;;;;;;6.22;4.65;;;;;;;;;;5056307;28;20107;-31
2023/06/07 00:50:37;;;;;;;11.93;4.93;;;;;;;;;;5056234;28;20333;-27
2023/06/07 00:53:04;;;;;;;4.63;4.22;;;;;;;;;;5055827;28;20052;-28
2023/06/07 00:55:30;;;;;;;4.72;4.28;;;;;;;;;;5055879;28;20025;-31
2023/06/07 00:57:57;;;;;;;6.28;3.90;;;;;;;;;;5056429;28;20348;-31
2023/06/07 01:00:23;;;;;;;5.85;4.15;;;;;;;;;;5055791;28;20025;-28
2023/06/07 01:02:49;;;;;;;5.15;4.00;;;;;;;;;;5055662;28;20039;-30
2023/06/07 01:05:17;;;;;;;5.88;4.00;;;;;;;;;;5055980;28;20048;-28
2023/06/07 01:07:49;;;;;;;5.40;3.97;;;;;;;;;;5055949;28;20103;-30
2023/06/07 01:10:16;;;;;;;5.43;3.90;;;;;;;;;;5055536;28;20028;-30
2023/06/07 01:12:47;;;;;;;4.97;4.47;;;;;;;;;;5056033;28;20407;-30
2023/06/07 01:15:13;;;;;;;;;;;;;;;;;;5055923;28;20158;-28
2023/06/07 01:17:42;;;;;;;5.10;4.13;;;;;;;;;;5055758;28;19935;-28
2023/06/07 01:20:13;;;;;;;4.80;4.32;;;;;;;;;;5055439;28;20021;-29
2023/06/07 01:22:42;;;;;;;4.68;3.80;;;;;;;;;;5055491;28;20028;-29
2023/06/07 01:25:08;;;;;;;5.88;4.28;;;;;;;;;;5055369;28;20025;-30
2023/06/07 01:27:36;;;;;;;4.85;4.07;;;;;;;;;;5055552;28;20048;-32
2023/06/07 01:30:03;;;;;;;5.45;4.95;;;;;;;;;;5055250;28;20054;-31
2023/06/07 01:32:30;;;;;;;8.43;4.65;;;;;;;;;;5055108;28;20106;-30
2023/06/07 01:34:57;;;;;;;7.97;4.60;;;;;;;;;;5055104;28;20075;-32
2023/06/07 01:37:24;;;;;;;4.38;3.97;;;;;;;;;;5055616;28;20086;-29
2023/06/07 01:39:51;;;;;;;4.30;3.90;;;;;;;;;;5055327;28;20025;-30
2023/06/07 01:42:17;;;;;;;4.38;3.97;;;;;;;;;;5055209;28;20036;-28
2023/06/07 01:44:46;;;;;;;4.53;3.70;;;;;;;;;;5055274;28;20044;-27
2023/06/07 01:47:14;;;;;;;4.20;3.50;;;;;;;;;;5054910;28;20448;-29
2023/06/07 01:49:40;;;;;;;9.27;4.25;;;;;;;;;;5055173;28;20036;-31
2023/06/07 01:52:07;;;;;;;5.05;4.32;;;;;;;;;;5054801;28;20036;-30
2023/06/07 01:54:33;;;;;;;4.03;3.72;;;;;;;;;;5055248;28;20464;-32
2023/06/07 01:57:09;;;;;;;5.47;4.65;;;;;;;;;;5054740;28;20021;-28
2023/06/07 01:59:36;;;;;;;4.18;3.88;;;;;;;;;;5055066;28;20104;-29
2023/06/07 02:02:08;;;;;;;6.25;4.80;;;;;;;;;;5053714;28;20021;-29
2023/06/07 02:04:37;;;;;;;6.28;4.00;;;;;;;;;;5015310;28;20584;-29
2023/06/07 02:07:06;;;;;;;4.50;4.10;;;;;;;;;;5015798;28;20453;-30
2023/06/07 02:09:35;;;;;;;4.28;3.90;;;;;;;;;;5015283;28;20034;-27
2023/06/07 02:12:03;;;;;;;5.82;4.60;;;;;;;;;;5014964;28;20025;-30
2023/06/07 02:14:29;;;;;;;4.40;4.07;;;;;;;;;;5014852;28;20030;-30
2023/06/07 02:16:55;;;;;;;3.88;3.58;;;;;;;;;;5014881;28;20029;-29
2023/06/07 02:19:21;;;;;;;5.55;3.88;;;;;;;;;;5014927;28;20353;-30
2023/06/07 02:21:47;;;;;;;5.35;4.38;;;;;;;;;;5015033;28;20084;-28
2023/06/07 02:24:14;;;;;;;5.00;4.53;;;;;;;;;;5015062;28;20445;-30
2023/06/07 02:26:40;;;;;;;4.63;3.97;;;;;;;;;;5015080;28;20056;-31
2023/06/07 02:29:06;;;;;;;6.32;4.97;;;;;;;;;;5014752;28;20026;-26
2023/06/07 02:31:32;;;;;;;4.32;3.92;;;;;;;;;;5014762;28;20041;-31
2023/06/07 02:33:58;;;;;;;4.05;3.70;;;;;;;;;;5015579;28;20025;-31
2023/06/07 02:36:25;;;;;;;6.43;5.05;;;;;;;;;;5019101;28;20079;-32
2023/06/07 02:38:51;;;;;;;5.05;4.50;;;;;;;;;;5019022;28;20101;-33
2023/06/07 02:41:18;;;;;;;4.65;4.25;;;;;;;;;;5018983;28;20100;-30
2023/06/07 02:43:44;;;;;;;4.70;4.25;;;;;;;;;;5018518;28;20036;-30
2023/06/07 02:46:13;;;;;;;4.50;4.18;;;;;;;;;;5018921;28;20022;-30
2023/06/07 02:48:40;;;;;;;5.90;3.83;;;;;;;;;;5018885;28;20022;-30
2023/06/07 02:51:06;;;;;;;6.50;5.13;;;;;;;;;;5018821;28;20026;-31
2023/06/07 02:53:32;;;;;;;5.10;4.03;;;;;;;;;;5018504;28;20033;-32
2023/06/07 02:55:58;;;;;;;4.70;4.30;;;;;;;;;;5018383;28;20116;-29
2023/06/07 02:58:24;;;;;;;4.57;4.18;;;;;;;;;;5018727;28;20046;-28
2023/06/07 03:00:54;;;;;;;6.90;3.90;;;;;;;;;;5018416;28;20104;-33
2023/06/07 03:03:20;;;;;;;6.15;4.55;;;;;;;;;;5038646;28;20041;-32
2023/06/07 03:05:48;;;;;;;5.07;4.13;;;;;;;;;;5057805;28;20028;-30
2023/06/07 03:08:15;;;;;;;4.32;3.92;;;;;;;;;;5058235;28;20029;-30
2023/06/07 03:10:41;;;;;;;4.00;3.60;;;;;;;;;;5058173;28;20041;-27
2023/06/07 03:13:07;;;;;;;4.68;4.00;;;;;;;;;;5058055;28;20021;-30
2023/06/07 03:15:33;;;;;;;4.82;3.70;;;;;;;;;;5057760;28;20481;-30
2023/06/07 03:18:01;;;;;;;5.28;4.68;;;;;;;;;;5058052;28;20325;-30
2023/06/07 03:20:28;;;;;;;5.18;3.95;;;;;;;;;;5057983;28;20032;-32
2023/06/07 03:22:54;;;;;;;4.70;4.18;;;;;;;;;;5057558;28;20037;-29
2023/06/07 03:25:20;;;;;;;5.82;3.85;;;;;;;;;;5057661;28;20138;-32
2023/06/07 03:27:46;;;;;;;8.70;4.03;;;;;;;;;;5056628;28;20025;-32
2023/06/07 03:30:13;;;;;;;4.13;3.72;;;;;;;;;;5057500;28;20028;-28
2023/06/07 03:32:40;;;;;;;4.88;4.25;;;;;;;;;;5057657;28;20414;-28
2023/06/07 03:35:07;;;;;;;5.13;4.43;;;;;;;;;;5057325;28;20094;-29
2023/06/07 03:37:33;;;;;;;5.35;4.82;;;;;;;;;;5057361;28;20029;-29
2023/06/07 03:39:59;;;;;;;8.48;3.67;;;;;;;;;;5057322;28;20092;-27
2023/06/07 03:42:25;;;;;;;5.50;4.10;;;;;;;;;;5057206;28;20021;-30
2023/06/07 03:44:51;;;;;;;4.72;4.30;;;;;;;;;;5057406;28;20025;-26
2023/06/07 03:47:17;;;;;;;6.65;4.05;;;;;;;;;;5057426;28;20345;-31
2023/06/07 03:49:44;;;;;;;5.38;3.95;;;;;;;;;;5056163;28;20066;-30
2023/06/07 03:52:10;;;;;;;4.60;4.20;;;;;;;;;;5057062;28;20109;-29
2023/06/07 03:54:36;;;;;;;7.95;3.90;;;;;;;;;;5057041;28;20033;-33
2023/06/07 03:57:03;;;;;;;4.18;3.88;;;;;;;;;;5057226;28;20037;-29
2023/06/07 03:59:29;;;;;;;5.57;4.80;;;;;;;;;;5057091;28;20093;-31
2023/06/07 04:01:57;;;;;;;4.32;4.03;;;;;;;;;;5057044;28;20032;-29
2023/06/07 04:04:27;;;;;;;6.43;4.53;;;;;;;;;;5056717;28;20457;-29
2023/06/07 04:06:54;;;;;;;4.80;4.35;;;;;;;;;;5057091;28;20036;-28
2023/06/07 04:09:20;;;;;;;3.90;3.60;;;;;;;;;;5056956;28;20388;-27
2023/06/07 04:11:47;;;;;;;4.28;3.97;;;;;;;;;;5056551;28;20029;-26
2023/06/07 04:14:13;;;;;;;4.68;4.28;;;;;;;;;;5056698;28;20468;-29
2023/06/07 04:16:39;;;;;;;3.63;3.35;;;;;;;;;;5056472;28;20025;-30
2023/06/07 04:19:05;;;;;;;5.53;3.72;;;;;;;;;;5055715;28;20048;-30
2023/06/07 04:21:32;;;;;;;5.55;3.70;;;;;;;;;;5056510;28;20021;-31
2023/06/07 04:23:58;;;;;;;4.38;3.67;;;;;;;;;;5056649;28;20332;-33
2023/06/07 04:26:25;;;;;;;4.18;3.40;;;;;;;;;;5056305;28;20025;-32
2023/06/07 04:28:56;;;;;;;6.25;4.03;;;;;;;;;;5056342;28;20025;-30
2023/06/07 04:31:29;;;;;;;4.95;4.05;;;;;;;;;;5056706;28;20040;-32
2023/06/07 04:34:01;;;;;;;5.68;4.35;;;;;;;;;;5056195;28;20394;-31
2023/06/07 04:36:28;;;;;;;6.68;4.18;;;;;;;;;;5055044;28;20397;-34
2023/06/07 04:38:58;;;;;;;4.93;3.22;;;;;;;;;;5056146;28;20340;-30
2023/06/07 04:41:32;;;;;;;4.57;3.58;;;;;;;;;;5056242;28;20352;-29
2023/06/07 04:44:00;;;;;;;3.83;3.53;;;;;;;;;;5056186;28;20056;-28
2023/06/07 04:46:27;;;;;;;3.63;3.33;;;;;;;;;;5056011;28;20033;-28
2023/06/07 04:48:53;;;;;;;6.32;4.30;;;;;;;;;;5055922;28;20024;-29
2023/06/07 04:51:20;;;;;;;4.03;3.70;;;;;;;;;;5056071;28;20017;-27
2023/06/07 04:53:49;;;;;;;6.20;3.85;;;;;;;;;;5055575;28;20024;-31
2023/06/07 04:56:16;;;;;;;5.70;5.03;;;;;;;;;;5055266;28;20029;-30
2023/06/07 04:58:42;;;;;;;4.57;4.18;;;;;;;;;;5055851;28;20025;-33
2023/06/07 05:01:10;;;;;;;5.82;3.95;;;;;;;;;;5055652;28;20017;-32
2023/06/07 05:03:38;;;;;;;8.30;4.00;;;;;;;;;;5055388;28;20148;-30
2023/06/07 05:06:05;;;;;;;4.25;3.65;;;;;;;;;;5055875;28;20124;-29
2023/06/07 05:08:31;;;;;;;7.05;3.70;;;;;;;;;;5055503;28;20103;-29
2023/06/07 05:10:57;;;;;;;5.10;4.03;;;;;;;;;;5055448;28;20464;-30
2023/06/07 05:13:23;;;;;;;4.35;4.00;;;;;;;;;;5055309;28;20104;-30
2023/06/07 05:15:52;;;;;;;4.10;3.70;;;;;;;;;;5054357;28;20468;-33
2023/06/07 05:18:19;;;;;;;8.27;3.67;;;;;;;;;;5055252;28;20074;-27
2023/06/07 05:20:46;;;;;;;23.17;5.38;;;;;;;;;;5055380;28;20059;-28
2023/06/07 05:23:16;;;;;;;7.43;3.58;;;;;;;;;;5055083;28;20364;-29
2023/06/07 05:25:43;;;;;;;4.35;3.72;;;;;;;;;;5055368;28;20104;-32
2023/06/07 05:28:09;;;;;;;6.70;4.13;;;;;;;;;;5055498;28;20356;-29
2023/06/07 05:30:36;;;;;;;8.13;3.70;;;;;;;;;;5055117;28;20092;-31
2023/06/07 05:33:02;;;;;;;6.43;3.88;;;;;;;;;;5055030;28;20028;-32
2023/06/07 05:35:28;;;;;;;11.20;4.93;;;;;;;;;;5055395;28;20107;-30
2023/06/07 05:37:54;;;;;;;5.95;4.43;;;;;;;;;;5055342;28;20353;-32
2023/06/07 05:40:21;;;;;;;4.93;4.13;;;;;;;;;;5055267;28;20021;-29
2023/06/07 05:42:49;;;;;;;10.07;4.38;;;;;;;;;;5055028;28;20059;-29
2023/06/07 05:45:16;;;;;;;9.45;3.40;;;;;;;;;;5055034;28;20033;-31
2023/06/07 05:47:43;;;;;;;4.47;3.65;;;;;;;;;;5054694;28;20035;-31
2023/06/07 05:50:10;;;;;;;8.77;4.10;;;;;;;;;;5054559;28;20043;-32
2023/06/07 05:52:40;;;;;;;7.40;3.47;;;;;;;;;;5054653;28;20108;-32
2023/06/07 05:55:07;;;;;;;3.88;3.58;;;;;;;;;;5054473;28;20025;-32
2023/06/07 05:57:33;;;;;;;6.07;4.45;;;;;;;;;;5054887;28;20107;-33
2023/06/07 05:59:59;;;;;;;7.65;4.05;;;;;;;;;;5054601;28;20441;-35
2023/06/07 06:02:28;;;;;;;4.18;3.75;;;;;;;;;;5054530;28;20041;-31
2023/06/07 06:04:55;;;;;;;6.32;3.67;;;;;;;;;;5054161;28;20029;-33
2023/06/07 06:07:21;;;;;;;7.70;3.65;;;;;;;;;;5054166;28;20032;-31
2023/06/07 06:09:47;;;;;;;7.90;3.25;;;;;;;;;;5053350;28;20025;-31
2023/06/07 06:12:13;;;;;;;4.10;3.80;;;;;;;;;;5053970;28;20040;-33
2023/06/07 06:14:40;;;;;;;3.95;3.53;;;;;;;;;;5054078;28;20040;-28
2023/06/07 06:17:06;;;;;;;5.50;3.20;;;;;;;;;;5054542;28;20017;-29
2023/06/07 06:19:32;;;;;;;3.97;3.47;;;;;;;;;;5054242;28;20032;-30
2023/06/07 06:21:58;;;;;;;5.65;3.80;;;;;;;;;;5052876;28;20036;-30
2023/06/07 06:24:25;;;;;;;4.90;3.40;;;;;;;;;;5053935;28;20029;-30
2023/06/07 06:26:51;;;;;;;6.82;4.25;;;;;;;;;;5054545;28;20025;-30
2023/06/07 06:29:17;;;;;;;6.32;3.70;;;;;;;;;;5054076;28;20021;-30
2023/06/07 06:31:43;;;;;;;6.95;4.70;;;;;;;;;;5053881;28;20029;-30
2023/06/07 06:34:10;;;;;;;3.40;3.08;;;;;;;;;;5054113;28;20108;-31
2023/06/07 06:36:37;;;;;;;6.70;3.80;;;;;;;;;;5054940;28;20025;-30
2023/06/07 06:39:04;;;;;;;6.35;4.00;;;;;;;;;;5054126;28;20033;-30
2023/06/07 06:41:33;;;;;;;6.03;3.22;;;;;;;;;;5054179;28;20056;-31
2023/06/07 06:43:59;;;;;;;11.27;4.05;;;;;;;;;;5054338;28;20021;-34
2023/06/07 06:46:25;;;;;;;8.40;4.10;;;;;;;;;;5054084;28;20045;-32
2023/06/07 06:48:51;;;;;;;6.55;3.50;;;;;;;;;;5054309;28;20393;-29
2023/06/07 06:51:17;;;;;;;8.45;3.80;;;;;;;;;;5054249;28;20041;-31
2023/06/07 06:53:43;;;;;;;6.32;3.67;;;;;;;;;;5053880;28;20063;-30
2023/06/07 06:56:09;;;;;;;9.27;3.83;;;;;;;;;;5053925;28;20070;-29
2023/06/07 06:58:35;;;;;;;3.92;3.58;;;;;;;;;;5054084;28;20025;-31
2023/06/07 07:01:02;;;;;;;14.60;3.83;;;;;;;;;;5053885;28;20025;-34
2023/06/07 07:03:29;;;;;;;4.75;3.80;;;;;;;;;;5053513;28;20175;-30
2023/06/07 07:05:55;;;;;;;6.90;3.95;;;;;;;;;;5053796;28;20036;-28
2023/06/07 07:08:21;;;;;;;8.20;3.72;;;;;;;;;;5053917;28;20025;-32
2023/06/07 07:10:47;;;;;;;8.70;4.32;;;;;;;;;;5054251;28;20036;-31
2023/06/07 07:13:15;;;;;;;5.30;4.03;;;;;;;;;;5054003;28;20075;-31
2023/06/07 07:15:41;;;;;;;6.40;3.83;;;;;;;;;;5053853;28;20041;-34
2023/06/07 07:18:08;;;;;;;5.40;3.88;;;;;;;;;;5054078;28;20025;-33
2023/06/07 07:20:34;;;;;;;6.00;4.07;;;;;;;;;;5055640;28;20032;-32
2023/06/07 07:23:02;;;;;;;9.10;3.97;;;;;;;;;;5057281;28;20031;-31
2023/06/07 07:25:29;;;;;;;14.10;4.25;;;;;;;;;;5057238;28;20021;-29
2023/06/07 07:27:55;;;;;;;6.00;3.80;;;;;;;;;;5057382;28;20060;-31
2023/06/07 07:30:21;;;;;;;29.05;4.63;;;;;;;;;;5057368;28;20021;-33
2023/06/07 07:32:47;;;;;;;16.42;4.90;;;;;;;;;;5057064;28;20032;-29
2023/06/07 07:35:13;;;;;;;14.00;5.13;;;;;;;;;;5057231;28;20102;-32
2023/06/07 07:37:40;;;;;;;14.25;4.45;;;;;;;;;;5056994;28;20051;-30
2023/06/07 07:40:08;;;;;;;12.77;4.80;;;;;;;;;;5057544;28;20086;-29
2023/06/07 07:42:35;;;;;;;13.25;4.05;;;;;;;;;;5056989;28;20048;-35
2023/06/07 07:45:01;;;;;;;4.60;3.65;;;;;;;;;;5057119;28;20033;-29
2023/06/07 07:47:27;;;;;;;14.48;4.65;;;;;;;;;;5057096;28;20107;-31
2023/06/07 07:49:55;;;;;;;10.27;3.90;;;;;;;;;;5057013;28;20037;-31
2023/06/07 07:52:21;;;;;;;6.05;3.90;;;;;;;;;;5057057;28;20024;-32
2023/06/07 07:54:47;;;;;;;9.45;3.90;;;;;;;;;;5056880;28;20047;-30
2023/06/07 07:57:13;;;;;;;7.60;4.20;;;;;;;;;;5056897;28;20020;-30
2023/06/07 07:59:39;;;;;;;5.65;4.25;;;;;;;;;;5056902;28;20033;-30
2023/06/07 08:02:05;;;;;;;7.03;3.92;;;;;;;;;;5055650;28;20025;-28
2023/06/07 08:04:31;;;;;;;5.20;3.92;;;;;;;;;;5056894;28;20021;-33
2023/06/07 08:06:58;;;;;;;12.00;4.50;;;;;;;;;;5056522;28;20032;-29
2023/06/07 08:09:24;;;;;;;10.43;4.68;;;;;;;;;;5056853;28;20037;-30
2023/06/07 08:11:50;;;;;;;12.75;5.00;;;;;;;;;;5056539;28;20025;-32
2023/06/07 08:14:16;;;;;;;8.07;4.07;;;;;;;;;;5056574;28;20029;-30
2023/06/07 08:16:42;;;;;;;4.70;3.65;;;;;;;;;;5056285;28;20471;-30
2023/06/07 08:19:09;;;;;;;7.30;3.90;;;;;;;;;;5056607;28;20025;-28
2023/06/07 08:21:37;;;;;;;6.55;3.47;;;;;;;;;;5056802;28;20025;-31
2023/06/07 08:24:04;;;;;;;6.93;3.90;;;;;;;;;;5056283;28;20448;-31
2023/06/07 08:26:30;;;;;;;6.18;3.67;;;;;;;;;;5056783;28;20056;-28
2023/06/07 08:28:57;;;;;;;4.75;3.63;;;;;;;;;;5056310;28;20025;-29
2023/06/07 08:31:27;;;;;;;7.78;4.55;;;;;;;;;;5055370;28;20032;-31
2023/06/07 08:33:53;;;;;;;12.13;4.72;;;;;;;;;;5056602;28;20014;-32
2023/06/07 08:36:19;;;;;;;10.30;4.47;;;;;;;;;;5056126;28;20040;-32
2023/06/07 08:38:46;;;;;;;5.75;3.67;;;;;;;;;;5056177;28;20087;-33
2023/06/07 08:41:12;;;;;;;6.25;3.85;;;;;;;;;;5056496;28;20079;-33
2023/06/07 08:43:40;;;;;;;7.30;3.58;;;;;;;;;;5056306;28;20036;-33
2023/06/07 08:46:07;;;;;;;5.97;3.83;;;;;;;;;;5056080;28;20356;-26
2023/06/07 08:48:33;;;;;;;7.97;3.97;;;;;;;;;;5056015;28;20031;-29
2023/06/07 08:51:03;;;;;;;8.30;4.07;;;;;;;;;;5055649;28;20063;-29
2023/06/07 08:53:38;;;;;;;15.30;4.45;;;;;;;;;;5055644;28;20345;-36
2023/06/07 08:56:04;;;;;;;9.13;4.03;;;;;;;;;;5055705;28;20039;-28
2023/06/07 08:58:30;;;;;;;10.88;3.92;;;;;;;;;;5055731;28;20025;-29
2023/06/07 09:00:59;;;;;;;6.85;3.50;;;;;;;;;;5055323;28;20364;-35
2023/06/07 09:03:25;;;;;;;6.88;4.00;;;;;;;;;;5055116;28;20106;-32
2023/06/07 09:05:55;;;;;;;10.00;3.83;;;;;;;;;;5055248;28;20091;-30
2023/06/07 09:08:22;;;;;;;10.70;4.47;;;;;;;;;;5056185;28;20349;-30
2023/06/07 09:10:48;;;;;;;9.52;4.65;;;;;;;;;;5055572;28;20029;-32
2023/06/07 09:13:20;;;;;;;12.68;4.68;;;;;;;;;;5055179;28;20132;-31
2023/06/07 09:15:51;;;;;;;16.05;4.47;;;;;;;;;;5055087;28;20115;-32
2023/06/07 09:18:18;;;;;;;9.07;3.42;;;;;;;;;;5055158;28;20384;-32
2023/06/07 09:20:44;;;;;;;7.57;4.20;;;;;;;;;;5055223;28;20452;-29
2023/06/07 09:23:14;;;;;;;7.63;4.40;;;;;;;;;;5054909;28;20112;-30
2023/06/07 09:25:44;;;;;;;4.97;3.47;;;;;;;;;;5054973;28;20460;-28
2023/06/07 09:28:14;;;;;;;5.55;3.75;;;;;;;;;;5054962;28;20040;-30
2023/06/07 09:31:06;;;;;;;8.02;4.63;;;;;;;;;;5055053;28;20021;-32
2023/06/07 09:33:36;;;;;;;13.77;4.88;;;;;;;;;;5053867;28;20044;-31
2023/06/07 09:36:09;;;;;;;5.20;3.78;;;;;;;;;;5055306;28;20349;-30
2023/06/07 09:38:36;;;;;;;8.07;4.40;;;;;;;;;;5054990;28;20029;-30
2023/06/07 09:41:03;;;;;;;6.22;3.97;;;;;;;;;;5054912;28;20028;-31
2023/06/07 09:43:49;;;;;;;13.45;4.95;;;;;;;;;;5054597;28;20017;-33
2023/06/07 09:46:15;;;;;;;13.20;4.72;;;;;;;;;;5054759;28;20057;-28
2023/06/07 09:48:48;;;;;;;6.47;3.30;;;;;;;;;;5055044;28;20083;-32
2023/06/07 09:51:15;;;;;;;8.10;4.43;;;;;;;;;;5054595;28;20470;-27
2023/06/07 09:53:59;;;;;;;12.40;5.32;;;;;;;;;;5054876;28;20036;-29
2023/06/07 09:56:25;;;;;;;7.03;4.15;;;;;;;;;;5054593;28;20091;-32
2023/06/07 09:59:07;;;;;;;6.43;4.50;;;;;;;;;;5054772;28;20090;-31
2023/06/07 10:01:45;;;;;;;5.90;4.13;;;;;;;;;;5055755;28;20368;-30
2023/06/07 10:04:11;;;;;;;6.95;3.30;;;;;;;;;;5054246;28;20128;-32
2023/06/07 10:06:42;;;;;;;5.65;3.92;;;;;;;;;;5054571;28;20025;-31
2023/06/07 10:09:09;;;;;;;7.78;4.30;;;;;;;;;;5053425;28;20032;-27
2023/06/07 10:11:39;;;;;;;9.38;4.20;;;;;;;;;;5054760;28;20024;-29
2023/06/07 10:14:06;;;;;;;8.30;4.40;;;;;;;;;;5054306;28;20033;-31
2023/06/07 10:16:38;;;;;;;10.27;4.38;;;;;;;;;;5055025;28;20017;-30
2023/06/07 10:19:08;;;;;;;10.50;4.10;;;;;;;;;;5054816;28;20025;-30
2023/06/07 10:21:35;;;;;;;7.20;4.32;;;;;;;;;;5054268;28;20045;-37
2023/06/07 10:24:05;;;;;;;7.00;3.97;;;;;;;;;;5054201;28;20025;-32
2023/06/07 10:26:35;;;;;;;9.15;5.70;;;;;;;;;;5054209;28;20158;-29
2023/06/07 10:29:09;;;;;;;11.75;4.07;;;;;;;;;;5054055;28;20025;-30
2023/06/07 10:31:40;;;;;;;9.85;4.68;;;;;;;;;;5054254;28;20029;-28
2023/06/07 10:34:08;;;;;;;11.05;4.13;;;;;;;;;;5054086;28;20044;-28
2023/06/07 10:36:41;;;;;;;10.63;4.47;;;;;;;;;;5052911;28;20029;-34
2023/06/07 10:39:07;;;;;;;12.13;4.43;;;;;;;;;;5054128;28;20032;-33
2023/06/07 10:41:35;;;;;;;11.32;3.92;;;;;;;;;;5053787;28;20029;-32
2023/06/07 10:44:02;;;;;;;9.20;4.03;;;;;;;;;;5054009;28;20052;-30
2023/06/07 10:46:29;;;;;;;8.45;3.67;;;;;;;;;;5053940;28;20347;-32
2023/06/07 10:48:59;;;;;;;16.55;3.70;;;;;;;;;;5053770;28;20031;-30
2023/06/07 10:51:46;;;;;;;17.33;3.88;;;;;;;;;;5054320;28;20021;-32
2023/06/07 10:54:28;;;;;;;9.32;4.65;;;;;;;;;;5053881;28;20370;-30
2023/06/07 10:56:54;;;;;;;10.10;4.53;;;;;;;;;;5057962;28;20029;-30
2023/06/07 10:59:21;;;;;;;12.05;4.78;;;;;;;;;;5057686;28;20021;-32
2023/06/07 11:01:49;;;;;;;7.93;4.40;;;;;;;;;;5057842;28;20104;-32
2023/06/07 11:04:39;;;;;;;15.10;3.80;;;;;;;;;;5057335;28;20037;-30
2023/06/07 11:07:22;;;;;;;9.32;4.57;;;;;;;;;;5057860;28;20041;-31
2023/06/07 11:09:49;;;;;;;8.90;4.53;;;;;;;;;;5057663;28;20021;-31
2023/06/07 11:12:35;;;;;;;5.13;3.63;;;;;;;;;;5057600;28;20056;-31
2023/06/07 11:15:21;;;;;;;6.72;3.80;;;;;;;;;;5053708;28;20120;-31
2023/06/07 11:17:54;;;;;;;9.27;4.40;;;;;;;;;;5057379;28;20026;-28
2023/06/07 11:20:38;;;;;;;25.02;5.18;;;;;;;;;;5057385;28;20166;-30
2023/06/07 11:23:23;;;;;;;10.05;5.65;;;;;;;;;;5057150;28;20089;-32
2023/06/07 11:25:51;;;;;;;8.75;3.95;;;;;;;;;;5056864;28;20021;-26
2023/06/07 11:28:27;;;;;;;6.90;4.55;;;;;;;;;;5057386;28;20387;-30
2023/06/07 11:30:54;;;;;;;7.10;4.18;;;;;;;;;;5057249;28;20037;-29
2023/06/07 11:33:21;;;;;;;6.18;4.25;;;;;;;;;;5057318;28;20040;-31
2023/06/07 11:35:48;;;;;;;13.90;4.05;;;;;;;;;;5057202;28;20036;-30
2023/06/07 11:38:14;;;;;;;11.15;4.43;;;;;;;;;;5057486;28;20407;-32
2023/06/07 11:40:41;;;;;;;9.27;5.20;;;;;;;;;;5057484;28;20452;-32
2023/06/07 11:43:11;;;;;;;7.35;3.85;;;;;;;;;;5057237;28;20108;-30
2023/06/07 11:45:41;;;;;;;12.48;4.35;;;;;;;;;;5057149;28;20494;-29
2023/06/07 11:48:07;;;;;;;6.72;4.18;;;;;;;;;;5057110;28;20029;-33
2023/06/07 11:50:37;;;;;;;12.32;4.45;;;;;;;;;;5057292;28;20029;-30
2023/06/07 11:53:03;;;;;;;7.78;4.18;;;;;;;;;;5055891;28;20135;-33
2023/06/07 11:55:29;;;;;;;6.15;3.83;;;;;;;;;;5057173;28;20029;-32
2023/06/07 11:57:56;;;;;;;6.20;4.43;;;;;;;;;;5057066;28;20068;-30
2023/06/07 12:00:23;;;;;;;11.00;4.53;;;;;;;;;;5056862;28;20017;-29
2023/06/07 12:02:50;;;;;;;5.93;3.85;;;;;;;;;;5058229;28;20036;-27
2023/06/07 12:05:17;;;;;;;6.15;3.63;;;;;;;;;;5056604;28;20039;-30
2023/06/07 12:07:44;;;;;;;6.72;3.92;;;;;;;;;;5055141;28;20043;-32
2023/06/07 12:10:13;;;;;;;5.70;3.90;;;;;;;;;;5056482;28;20021;-28
2023/06/07 12:12:39;;;;;;;9.32;5.38;;;;;;;;;;5056687;28;20451;-34
2023/06/07 12:15:06;;;;;;;5.15;4.05;;;;;;;;;;5056901;28;20048;-29
2023/06/07 12:17:36;;;;;;;6.25;3.70;;;;;;;;;;5057039;28;20021;-30
2023/06/07 12:20:12;;;;;;;4.60;3.40;;;;;;;;;;5057283;28;20036;-29
2023/06/07 12:22:38;;;;;;;14.02;3.90;;;;;;;;;;5056391;28;20017;-26
2023/06/07 12:25:09;;;;;;;10.23;4.13;;;;;;;;;;5056616;28;20021;-30
2023/06/07 12:27:37;;;;;;;7.55;4.35;;;;;;;;;;5056640;28;20021;-34
2023/06/07 12:30:07;;;;;;;4.35;3.70;;;;;;;;;;5056397;28;20025;-32
2023/06/07 12:32:33;;;;;;;7.80;4.07;;;;;;;;;;5038821;28;20032;-32
2023/06/07 12:35:05;;;;;;;6.57;4.63;;;;;;;;;;5056157;28;20083;-30
2023/06/07 12:37:37;;;;;;;4.53;3.92;;;;;;;;;;5056220;28;20021;-32
2023/06/07 12:40:08;;;;;;;4.63;3.70;;;;;;;;;;5055206;28;20108;-28
2023/06/07 12:42:41;;;;;;;7.35;3.47;;;;;;;;;;5056231;28;20060;-29
2023/06/07 12:45:08;;;;;;;5.75;3.67;;;;;;;;;;5056396;28;20113;-29
2023/06/07 12:47:35;;;;;;;7.38;4.20;;;;;;;;;;5056764;28;20040;-30
2023/06/07 12:50:01;;;;;;;4.80;3.47;;;;;;;;;;5054915;28;20099;-32
2023/06/07 12:52:27;;;;;;;12.68;4.13;;;;;;;;;;5055931;28;20060;-30
2023/06/07 12:54:53;;;;;;;5.72;4.10;;;;;;;;;;5055700;28;20444;-31
2023/06/07 12:57:19;;;;;;;6.47;4.53;;;;;;;;;;5055759;28;20063;-31
2023/06/07 12:59:45;;;;;;;6.85;4.75;;;;;;;;;;5055686;28;20059;-28
2023/06/07 13:02:11;;;;;;;8.73;4.45;;;;;;;;;;5055633;28;20401;-28
2023/06/07 13:04:38;;;;;;;5.63;4.13;;;;;;;;;;5055500;28;20143;-29
2023/06/07 13:07:04;;;;;;;5.38;3.88;;;;;;;;;;5055654;28;20033;-29
2023/06/07 13:09:30;;;;;;;13.32;6.25;;;;;;;;;;5055702;28;20071;-30
2023/06/07 13:11:57;;;;;;;5.07;3.88;;;;;;;;;;5055943;28;20071;-30
2023/06/07 13:14:23;;;;;;;6.80;4.30;;;;;;;;;;5055451;28;20041;-31
2023/06/07 13:16:49;;;;;;;5.10;4.25;;;;;;;;;;5055784;28;20103;-30
2023/06/07 13:19:16;;;;;;;8.75;3.95;;;;;;;;;;5055313;28;20368;-30
2023/06/07 13:21:42;;;;;;;13.77;4.82;;;;;;;;;;5055691;28;20013;-31
2023/06/07 13:24:09;;;;;;;5.15;3.40;;;;;;;;;;5055210;28;20021;-28
2023/06/07 13:26:35;;;;;;;5.35;3.90;;;;;;;;;;5055266;28;20025;-29
2023/06/07 13:29:01;;;;;;;13.25;6.05;;;;;;;;;;5055487;28;20406;-28
2023/06/07 13:31:27;;;;;;;8.35;5.50;;;;;;;;;;5055176;28;20088;-28
2023/06/07 13:33:54;;;;;;;13.27;4.65;;;;;;;;;;5054997;28;20037;-29
2023/06/07 13:36:20;;;;;;;6.40;4.65;;;;;;;;;;5055352;28;20036;-30
2023/06/07 13:38:46;;;;;;;10.18;4.50;;;;;;;;;;5055294;28;20021;-29
2023/06/07 13:41:12;;;;;;;7.50;4.50;;;;;;;;;;5055278;28;20035;-29
2023/06/07 13:43:38;;;;;;;10.77;4.05;;;;;;;;;;5053971;28;20021;-28
2023/06/07 13:46:05;;;;;;;6.82;4.50;;;;;;;;;;5054931;28;20033;-29
2023/06/07 13:48:31;;;;;;;6.85;4.30;;;;;;;;;;5054987;28;20333;-30
2023/06/07 13:50:57;;;;;;;6.82;4.43;;;;;;;;;;5054883;28;20055;-29
2023/06/07 13:53:23;;;;;;;10.77;4.90;;;;;;;;;;5054800;28;20029;-27
2023/06/07 13:55:50;;;;;;;11.18;5.22;;;;;;;;;;5054641;28;20036;-27
2023/06/07 13:58:17;;;;;;;8.73;4.22;;;;;;;;;;5054700;28;20020;-27
2023/06/07 14:00:45;;;;;;;11.27;3.90;;;;;;;;;;5053833;28;20430;-31
2023/06/07 14:03:11;;;;;;;5.00;4.50;;;;;;;;;;5054655;28;20041;-26
2023/06/07 14:05:37;;;;;;;6.50;3.83;;;;;;;;;;5054662;28;20041;-32
2023/06/07 14:08:03;;;;;;;11.77;4.43;;;;;;;;;;5053813;28;20037;-28
2023/06/07 14:10:31;;;;;;;12.50;4.28;;;;;;;;;;5054627;28;20029;-28
2023/06/07 14:12:57;;;;;;;6.32;3.60;;;;;;;;;;5054817;28;20439;-26
2023/06/07 14:15:23;;;;;;;12.35;5.03;;;;;;;;;;5055015;28;20045;-31
2023/06/07 14:17:49;;;;;;;6.95;4.22;;;;;;;;;;5054534;28;20090;-30
2023/06/07 14:20:16;;;;;;;6.78;4.38;;;;;;;;;;5054738;28;20100;-30
2023/06/07 14:22:42;;;;;;;11.10;5.30;;;;;;;;;;5054303;28;20059;-28
2023/06/07 14:25:08;;;;;;;10.68;4.18;;;;;;;;;;5054709;28;20033;-33
2023/06/07 14:27:34;;;;;;;9.40;4.72;;;;;;;;;;5054352;28;20126;-31
2023/06/07 14:30:00;;;;;;;7.47;5.05;;;;;;;;;;5052637;28;20476;-29
2023/06/07 14:32:27;;;;;;;8.63;4.55;;;;;;;;;;5054198;28;20025;-28
2023/06/07 14:34:53;;;;;;;7.03;4.60;;;;;;;;;;5054158;28;20024;-26
2023/06/07 14:37:19;;;;;;;14.27;4.63;;;;;;;;;;5054442;28;20348;-28
2023/06/07 14:39:45;;;;;;;18.35;5.15;;;;;;;;;;5054157;28;20029;-27
2023/06/07 14:42:12;;;;;;;11.50;4.10;;;;;;;;;;5054579;28;20028;-28
2023/06/07 14:44:38;;;;;;;7.78;4.85;;;;;;;;;;5054631;28;20044;-30